sensor_id;sensor_type;location;lat;lon;timestamp;temperature;humidity
49549;DHT22;35450;44.518;7.466;2022-08-01T05:12:13;23.60;69.30
49549;DHT22;35450;44.518;7.466;2022-08-01T05:15:18;23.40;71.10
49549;DHT22;35450;44.518;7.466;2022-08-01T05:18:22;23.40;71.60
49549;DHT22;35450;44.518;7.466;2022-08-01T05:21:26;23.20;72.70
49549;DHT22;35450;44.518;7.466;2022-08-01T05:24:31;23.20;73.10
49549;DHT22;35450;44.518;7.466;2022-08-01T05:27:36;23.20;72.60
49549;DHT22;35450;44.518;7.466;2022-08-01T05:30:43;23.30;71.60
49549;DHT22;35450;44.518;7.466;2022-08-01T05:33:47;23.20;74.20
49549;DHT22;35450;44.518;7.466;2022-08-01T05:36:51;23.30;74.20
49549;DHT22;35450;44.518;7.466;2022-08-01T05:39:55;23.50;73.60
49549;DHT22;35450;44.518;7.466;2022-08-01T05:42:59;23.60;72.80
49549;DHT22;35450;44.518;7.466;2022-08-01T05:46:03;23.70;71.40
49549;DHT22;35450;44.518;7.466;2022-08-01T05:49:07;23.80;70.20
49549;DHT22;35450;44.518;7.466;2022-08-01T05:52:12;23.90;70.70
49549;DHT22;35450;44.518;7.466;2022-08-01T05:55:16;24.00;71.90
49549;DHT22;35450;44.518;7.466;2022-08-01T05:58:21;24.10;71.90
49549;DHT22;35450;44.518;7.466;2022-08-01T06:01:25;24.20;73.90
49549;DHT22;35450;44.518;7.466;2022-08-01T06:04:29;24.30;73.50
49549;DHT22;35450;44.518;7.466;2022-08-01T06:07:33;24.40;73.70
49549;DHT22;35450;44.518;7.466;2022-08-01T06:10:37;24.60;70.40
49549;DHT22;35450;44.518;7.466;2022-08-01T06:13:41;24.70;68.30
49549;DHT22;35450;44.518;7.466;2022-08-01T06:16:46;24.80;66.70
49549;DHT22;35450;44.518;7.466;2022-08-01T06:19:49;24.90;65.70
49549;DHT22;35450;44.518;7.466;2022-08-01T06:22:54;25.00;64.70
49549;DHT22;35450;44.518;7.466;2022-08-01T06:25:58;25.10;64.30
49549;DHT22;35450;44.518;7.466;2022-08-01T06:29:03;25.20;63.60
49549;DHT22;35450;44.518;7.466;2022-08-01T06:32:07;25.20;63.80
49549;DHT22;35450;44.518;7.466;2022-08-01T06:35:11;25.30;64.30
49549;DHT22;35450;44.518;7.466;2022-08-01T06:38:15;25.40;64.50
49549;DHT22;35450;44.518;7.466;2022-08-01T06:41:19;25.40;64.80
49549;DHT22;35450;44.518;7.466;2022-08-01T06:44:23;25.40;64.90
49549;DHT22;35450;44.518;7.466;2022-08-01T06:47:27;25.40;64.80
49549;DHT22;35450;44.518;7.466;2022-08-01T06:50:32;25.50;64.60
49549;DHT22;35450;44.518;7.466;2022-08-01T06:53:37;25.50;64.30
49549;DHT22;35450;44.518;7.466;2022-08-01T06:56:41;25.60;64.00
49549;DHT22;35450;44.518;7.466;2022-08-01T06:59:45;25.60;64.30
49549;DHT22;35450;44.518;7.466;2022-08-01T07:02:54;25.60;64.20
49549;DHT22;35450;44.518;7.466;2022-08-01T07:05:59;25.60;64.90
49549;DHT22;35450;44.518;7.466;2022-08-01T07:09:03;25.70;65.20
49549;DHT22;35450;44.518;7.466;2022-08-01T07:12:07;25.70;65.60
49549;DHT22;35450;44.518;7.466;2022-08-01T07:15:12;25.70;66.30
49549;DHT22;35450;44.518;7.466;2022-08-01T07:18:16;25.80;66.40
49549;DHT22;35450;44.518;7.466;2022-08-01T07:21:20;25.80;66.20
49549;DHT22;35450;44.518;7.466;2022-08-01T07:24:24;25.80;66.60
49549;DHT22;35450;44.518;7.466;2022-08-01T07:27:28;25.90;66.50
49549;DHT22;35450;44.518;7.466;2022-08-01T07:30:32;25.90;66.20
49549;DHT22;35450;44.518;7.466;2022-08-01T07:33:36;26.00;66.10
49549;DHT22;35450;44.518;7.466;2022-08-01T07:36:40;26.00;65.50
49549;DHT22;35450;44.518;7.466;2022-08-01T07:39:45;26.10;63.90
49549;DHT22;35450;44.518;7.466;2022-08-01T07:42:49;26.10;63.30
49549;DHT22;35450;44.518;7.466;2022-08-01T07:45:53;26.10;63.10
49549;DHT22;35450;44.518;7.466;2022-08-01T07:48:57;26.20;62.80
49549;DHT22;35450;44.518;7.466;2022-08-01T07:52:01;26.20;62.50
49549;DHT22;35450;44.518;7.466;2022-08-01T07:55:05;26.20;61.60
49549;DHT22;35450;44.518;7.466;2022-08-01T07:58:09;26.20;61.10
49549;DHT22;35450;44.518;7.466;2022-08-01T08:01:13;26.30;61.20
49549;DHT22;35450;44.518;7.466;2022-08-01T08:04:18;26.30;60.20
49549;DHT22;35450;44.518;7.466;2022-08-01T08:07:22;26.30;59.80
49549;DHT22;35450;44.518;7.466;2022-08-01T08:10:26;26.30;59.90
49549;DHT22;35450;44.518;7.466;2022-08-01T08:13:30;26.40;59.90
49549;DHT22;35450;44.518;7.466;2022-08-01T08:16:34;26.40;59.80
49549;DHT22;35450;44.518;7.466;2022-08-01T08:19:38;26.50;59.90
49549;DHT22;35450;44.518;7.466;2022-08-01T08:23:06;26.50;59.80
49549;DHT22;35450;44.518;7.466;2022-08-01T08:26:30;26.50;60.30
49549;DHT22;35450;44.518;7.466;2022-08-01T08:29:34;26.60;60.10
49549;DHT22;35450;44.518;7.466;2022-08-01T08:32:39;26.60;59.90
49549;DHT22;35450;44.518;7.466;2022-08-01T08:35:43;26.60;60.50
49549;DHT22;35450;44.518;7.466;2022-08-01T08:38:47;26.70;61.20
49549;DHT22;35450;44.518;7.466;2022-08-01T08:41:52;26.70;61.60
49549;DHT22;35450;44.518;7.466;2022-08-01T08:44:56;26.70;61.80
49549;DHT22;35450;44.518;7.466;2022-08-01T08:48:00;26.70;62.00
49549;DHT22;35450;44.518;7.466;2022-08-01T08:51:05;26.70;62.60
49549;DHT22;35450;44.518;7.466;2022-08-01T08:54:11;26.80;64.20
49549;DHT22;35450;44.518;7.466;2022-08-01T08:57:19;26.80;64.60
49549;DHT22;35450;44.518;7.466;2022-08-01T09:00:27;26.80;64.40
49549;DHT22;35450;44.518;7.466;2022-08-01T09:03:36;26.90;64.20
49549;DHT22;35450;44.518;7.466;2022-08-01T09:06:40;26.90;64.00
49549;DHT22;35450;44.518;7.466;2022-08-01T09:09:45;26.90;64.00
49549;DHT22;35450;44.518;7.466;2022-08-01T09:13:10;26.90;64.00
49549;DHT22;35450;44.518;7.466;2022-08-01T09:16:16;27.00;63.40
49549;DHT22;35450;44.518;7.466;2022-08-01T09:19:21;27.00;62.60
49549;DHT22;35450;44.518;7.466;2022-08-01T09:22:25;27.00;62.10
49549;DHT22;35450;44.518;7.466;2022-08-01T09:25:29;27.00;62.60
49549;DHT22;35450;44.518;7.466;2022-08-01T09:28:36;27.10;62.30
49549;DHT22;35450;44.518;7.466;2022-08-01T09:31:43;27.10;62.80
49549;DHT22;35450;44.518;7.466;2022-08-01T09:34:47;27.20;62.00
49549;DHT22;35450;44.518;7.466;2022-08-01T09:37:55;27.20;61.40
49549;DHT22;35450;44.518;7.466;2022-08-01T09:41:15;27.30;61.40
49549;DHT22;35450;44.518;7.466;2022-08-01T09:44:19;27.30;61.80
49549;DHT22;35450;44.518;7.466;2022-08-01T09:47:40;27.40;61.30
49549;DHT22;35450;44.518;7.466;2022-08-01T09:50:46;27.40;60.90
49549;DHT22;35450;44.518;7.466;2022-08-01T09:53:50;27.40;60.70
49549;DHT22;35450;44.518;7.466;2022-08-01T09:57:16;27.50;60.90
49549;DHT22;35450;44.518;7.466;2022-08-01T10:00:20;27.60;60.80
49549;DHT22;35450;44.518;7.466;2022-08-01T10:03:26;27.60;60.40
49549;DHT22;35450;44.518;7.466;2022-08-01T10:06:30;27.70;60.10
49549;DHT22;35450;44.518;7.466;2022-08-01T10:09:36;27.70;59.60
49549;DHT22;35450;44.518;7.466;2022-08-01T10:12:43;27.70;59.40
49549;DHT22;35450;44.518;7.466;2022-08-01T10:15:47;27.80;59.60
49549;DHT22;35450;44.518;7.466;2022-08-01T10:18:51;27.80;59.40
49549;DHT22;35450;44.518;7.466;2022-08-01T10:21:57;27.80;59.90
49549;DHT22;35450;44.518;7.466;2022-08-01T10:25:03;27.90;59.40
49549;DHT22;35450;44.518;7.466;2022-08-01T10:28:14;27.90;60.10
49549;DHT22;35450;44.518;7.466;2022-08-01T10:31:20;27.90;59.50
49549;DHT22;35450;44.518;7.466;2022-08-01T10:34:24;28.00;59.70
49549;DHT22;35450;44.518;7.466;2022-08-01T10:37:29;28.00;58.20
49549;DHT22;35450;44.518;7.466;2022-08-01T10:40:33;28.00;57.40
49549;DHT22;35450;44.518;7.466;2022-08-01T10:43:39;28.00;58.60
49549;DHT22;35450;44.518;7.466;2022-08-01T10:46:48;28.10;58.50
49549;DHT22;35450;44.518;7.466;2022-08-01T10:50:13;28.00;58.30
49549;DHT22;35450;44.518;7.466;2022-08-01T10:53:25;28.10;58.80
49549;DHT22;35450;44.518;7.466;2022-08-01T10:56:45;28.20;58.70
49549;DHT22;35450;44.518;7.466;2022-08-01T10:59:51;28.20;58.10
49549;DHT22;35450;44.518;7.466;2022-08-01T11:03:01;28.30;58.00
49549;DHT22;35450;44.518;7.466;2022-08-01T11:06:07;28.40;58.70
49549;DHT22;35450;44.518;7.466;2022-08-01T11:09:28;28.40;58.10
49549;DHT22;35450;44.518;7.466;2022-08-01T11:12:40;28.50;58.40
49549;DHT22;35450;44.518;7.466;2022-08-01T11:15:45;28.50;58.80
49549;DHT22;35450;44.518;7.466;2022-08-01T11:18:52;28.40;58.10
49549;DHT22;35450;44.518;7.466;2022-08-01T11:24:59;28.50;58.30
49549;DHT22;35450;44.518;7.466;2022-08-01T11:34:55;28.60;59.00
49549;DHT22;35450;44.518;7.466;2022-08-01T11:38:22;28.70;59.40
49549;DHT22;35450;44.518;7.466;2022-08-01T11:41:29;28.60;59.00
49549;DHT22;35450;44.518;7.466;2022-08-01T11:44:50;28.70;59.20
49549;DHT22;35450;44.518;7.466;2022-08-01T11:47:54;28.70;59.30
49549;DHT22;35450;44.518;7.466;2022-08-01T11:50:59;28.80;59.10
49549;DHT22;35450;44.518;7.466;2022-08-01T11:54:04;28.80;58.30
49549;DHT22;35450;44.518;7.466;2022-08-01T11:57:10;28.90;59.20
49549;DHT22;35450;44.518;7.466;2022-08-01T12:00:17;28.80;58.20
49549;DHT22;35450;44.518;7.466;2022-08-01T12:03:26;28.80;59.30
49549;DHT22;35450;44.518;7.466;2022-08-01T12:06:31;28.90;58.40
49549;DHT22;35450;44.518;7.466;2022-08-01T12:09:35;28.90;59.20
49549;DHT22;35450;44.518;7.466;2022-08-01T12:12:44;29.00;59.00
49549;DHT22;35450;44.518;7.466;2022-08-01T12:15:48;29.10;59.50
49549;DHT22;35450;44.518;7.466;2022-08-01T12:18:54;29.10;58.40
49549;DHT22;35450;44.518;7.466;2022-08-01T12:22:13;29.10;58.70
49549;DHT22;35450;44.518;7.466;2022-08-01T12:25:18;29.10;58.60
49549;DHT22;35450;44.518;7.466;2022-08-01T12:28:23;29.20;58.80
49549;DHT22;35450;44.518;7.466;2022-08-01T12:31:32;29.10;58.50
49549;DHT22;35450;44.518;7.466;2022-08-01T12:34:36;29.10;58.40
49549;DHT22;35450;44.518;7.466;2022-08-01T12:37:43;29.20;58.90
49549;DHT22;35450;44.518;7.466;2022-08-01T12:40:48;29.20;58.60
49549;DHT22;35450;44.518;7.466;2022-08-01T12:43:52;29.20;58.50
49549;DHT22;35450;44.518;7.466;2022-08-01T12:46:57;29.30;59.50
49549;DHT22;35450;44.518;7.466;2022-08-01T12:50:01;29.40;58.40
49549;DHT22;35450;44.518;7.466;2022-08-01T12:53:08;29.50;57.90
49549;DHT22;35450;44.518;7.466;2022-08-01T12:56:12;29.50;57.80
49549;DHT22;35450;44.518;7.466;2022-08-01T12:59:21;29.50;57.80
49549;DHT22;35450;44.518;7.466;2022-08-01T13:02:34;29.40;58.10
49549;DHT22;35450;44.518;7.466;2022-08-01T13:05:47;29.40;58.10
49549;DHT22;35450;44.518;7.466;2022-08-01T13:08:55;29.50;58.30
49549;DHT22;35450;44.518;7.466;2022-08-01T13:12:08;29.60;58.30
49549;DHT22;35450;44.518;7.466;2022-08-01T13:15:17;29.60;58.40
49549;DHT22;35450;44.518;7.466;2022-08-01T13:18:24;29.60;58.00
49549;DHT22;35450;44.518;7.466;2022-08-01T13:21:29;29.60;58.00
49549;DHT22;35450;44.518;7.466;2022-08-01T13:24:34;29.70;58.40
49549;DHT22;35450;44.518;7.466;2022-08-01T13:27:38;29.70;58.00
49549;DHT22;35450;44.518;7.466;2022-08-01T13:30:51;29.70;58.00
49549;DHT22;35450;44.518;7.466;2022-08-01T13:33:56;29.80;57.80
49549;DHT22;35450;44.518;7.466;2022-08-01T13:37:02;29.80;57.60
49549;DHT22;35450;44.518;7.466;2022-08-01T13:40:11;29.80;57.30
49549;DHT22;35450;44.518;7.466;2022-08-01T13:43:15;29.80;58.00
49549;DHT22;35450;44.518;7.466;2022-08-01T13:46:19;29.80;57.90
49549;DHT22;35450;44.518;7.466;2022-08-01T13:49:23;29.90;58.60
49549;DHT22;35450;44.518;7.466;2022-08-01T13:52:28;30.00;58.50
49549;DHT22;35450;44.518;7.466;2022-08-01T13:55:32;30.10;58.30
49549;DHT22;35450;44.518;7.466;2022-08-01T13:58:36;30.20;58.50
49549;DHT22;35450;44.518;7.466;2022-08-01T14:01:41;30.30;58.30
49549;DHT22;35450;44.518;7.466;2022-08-01T14:04:45;30.30;57.70
49549;DHT22;35450;44.518;7.466;2022-08-01T14:07:49;30.30;58.10
49549;DHT22;35450;44.518;7.466;2022-08-01T14:10:53;30.30;57.80
49549;DHT22;35450;44.518;7.466;2022-08-01T14:14:01;30.30;57.70
49549;DHT22;35450;44.518;7.466;2022-08-01T14:17:05;30.30;57.50
49549;DHT22;35450;44.518;7.466;2022-08-01T14:20:09;30.30;57.90
49549;DHT22;35450;44.518;7.466;2022-08-01T14:23:14;30.40;58.20
49549;DHT22;35450;44.518;7.466;2022-08-01T14:26:18;30.40;57.50
49549;DHT22;35450;44.518;7.466;2022-08-01T14:29:22;30.40;57.30
49549;DHT22;35450;44.518;7.466;2022-08-01T14:32:26;30.40;57.10
49549;DHT22;35450;44.518;7.466;2022-08-01T14:35:30;30.40;57.30
49549;DHT22;35450;44.518;7.466;2022-08-01T14:38:34;30.50;57.20
49549;DHT22;35450;44.518;7.466;2022-08-01T14:41:38;30.60;56.90
49549;DHT22;35450;44.518;7.466;2022-08-01T14:44:42;30.60;57.00
49549;DHT22;35450;44.518;7.466;2022-08-01T14:47:46;30.60;57.30
49549;DHT22;35450;44.518;7.466;2022-08-01T14:50:50;30.70;57.40
49549;DHT22;35450;44.518;7.466;2022-08-01T14:53:54;30.80;57.50
49549;DHT22;35450;44.518;7.466;2022-08-01T14:56:59;30.90;57.10
49549;DHT22;35450;44.518;7.466;2022-08-01T15:00:06;31.00;56.50
49549;DHT22;35450;44.518;7.466;2022-08-01T15:03:11;31.00;56.50
49549;DHT22;35450;44.518;7.466;2022-08-01T15:06:17;31.00;56.20
49549;DHT22;35450;44.518;7.466;2022-08-01T15:09:21;31.00;56.20
49549;DHT22;35450;44.518;7.466;2022-08-01T15:12:26;31.20;56.80
49549;DHT22;35450;44.518;7.466;2022-08-01T15:15:30;31.30;56.40
49549;DHT22;35450;44.518;7.466;2022-08-01T15:18:34;31.30;56.10
49549;DHT22;35450;44.518;7.466;2022-08-01T15:21:38;31.30;56.70
49549;DHT22;35450;44.518;7.466;2022-08-01T15:24:43;31.40;56.10
49549;DHT22;35450;44.518;7.466;2022-08-01T15:27:47;31.50;55.70
49549;DHT22;35450;44.518;7.466;2022-08-01T15:30:51;31.50;56.70
49549;DHT22;35450;44.518;7.466;2022-08-01T15:33:56;31.60;55.70
49549;DHT22;35450;44.518;7.466;2022-08-01T15:37:02;31.70;56.10
49549;DHT22;35450;44.518;7.466;2022-08-01T15:40:07;31.80;56.10
49549;DHT22;35450;44.518;7.466;2022-08-01T15:43:11;31.90;55.70
49549;DHT22;35450;44.518;7.466;2022-08-01T15:46:15;32.20;55.50
49549;DHT22;35450;44.518;7.466;2022-08-01T15:49:19;34.90;53.50
49549;DHT22;35450;44.518;7.466;2022-08-01T15:52:26;38.40;49.20
49549;DHT22;35450;44.518;7.466;2022-08-01T15:55:30;38.20;47.00
49549;DHT22;35450;44.518;7.466;2022-08-01T15:58:34;37.20;48.30
49549;DHT22;35450;44.518;7.466;2022-08-01T16:01:38;36.60;48.20
49549;DHT22;35450;44.518;7.466;2022-08-01T16:04:42;35.90;49.10
49549;DHT22;35450;44.518;7.466;2022-08-01T16:07:46;35.40;50.20
49549;DHT22;35450;44.518;7.466;2022-08-01T16:10:50;34.90;51.00
49549;DHT22;35450;44.518;7.466;2022-08-01T16:13:55;34.30;51.90
49549;DHT22;35450;44.518;7.466;2022-08-01T16:16:59;33.80;52.30
49549;DHT22;35450;44.518;7.466;2022-08-01T16:20:03;33.70;52.70
49549;DHT22;35450;44.518;7.466;2022-08-01T16:23:08;33.40;53.20
49549;DHT22;35450;44.518;7.466;2022-08-01T16:26:13;33.20;53.90
49549;DHT22;35450;44.518;7.466;2022-08-01T16:29:17;33.10;53.60
49549;DHT22;35450;44.518;7.466;2022-08-01T16:32:21;33.00;53.80
49549;DHT22;35450;44.518;7.466;2022-08-01T16:35:25;33.00;53.80
49549;DHT22;35450;44.518;7.466;2022-08-01T16:38:29;32.90;54.10
49549;DHT22;35450;44.518;7.466;2022-08-01T16:41:33;32.80;54.70
49549;DHT22;35450;44.518;7.466;2022-08-01T16:44:38;32.80;54.10
49549;DHT22;35450;44.518;7.466;2022-08-01T16:47:42;32.80;54.60
49549;DHT22;35450;44.518;7.466;2022-08-01T16:50:48;32.90;54.30
49549;DHT22;35450;44.518;7.466;2022-08-01T16:53:52;32.90;54.40
49549;DHT22;35450;44.518;7.466;2022-08-01T16:56:56;32.90;54.50
49549;DHT22;35450;44.518;7.466;2022-08-01T17:00:12;32.80;54.40
49549;DHT22;35450;44.518;7.466;2022-08-01T17:03:16;32.80;54.40
49549;DHT22;35450;44.518;7.466;2022-08-01T17:06:20;32.80;54.30
49549;DHT22;35450;44.518;7.466;2022-08-01T17:09:25;32.90;54.70
49549;DHT22;35450;44.518;7.466;2022-08-01T17:12:29;32.90;54.20
49549;DHT22;35450;44.518;7.466;2022-08-01T17:15:34;33.00;54.60
49549;DHT22;35450;44.518;7.466;2022-08-01T17:18:38;33.00;54.10
49549;DHT22;35450;44.518;7.466;2022-08-01T17:21:43;33.10;54.70
49549;DHT22;35450;44.518;7.466;2022-08-01T17:24:47;33.00;54.70
49549;DHT22;35450;44.518;7.466;2022-08-01T17:27:53;33.00;55.20
49549;DHT22;35450;44.518;7.466;2022-08-01T17:30:58;32.90;55.30
49549;DHT22;35450;44.518;7.466;2022-08-01T17:34:03;32.90;55.70
49549;DHT22;35450;44.518;7.466;2022-08-01T17:37:07;32.70;55.50
49549;DHT22;35450;44.518;7.466;2022-08-01T17:40:12;32.70;56.10
49549;DHT22;35450;44.518;7.466;2022-08-01T17:43:16;32.60;56.00
49549;DHT22;35450;44.518;7.466;2022-08-01T17:46:20;32.50;55.70
49549;DHT22;35450;44.518;7.466;2022-08-01T17:49:24;32.20;56.00
49549;DHT22;35450;44.518;7.466;2022-08-01T17:52:30;31.90;56.60
49549;DHT22;35450;44.518;7.466;2022-08-01T17:55:34;31.60;56.90
49549;DHT22;35450;44.518;7.466;2022-08-01T17:58:39;31.40;57.60
49549;DHT22;35450;44.518;7.466;2022-08-01T18:01:43;31.20;58.40
49549;DHT22;35450;44.518;7.466;2022-08-01T18:04:54;31.00;58.50
49549;DHT22;35450;44.518;7.466;2022-08-01T18:07:58;30.90;59.60
49549;DHT22;35450;44.518;7.466;2022-08-01T18:11:02;30.70;60.40
49549;DHT22;35450;44.518;7.466;2022-08-01T18:14:06;30.60;60.70
49549;DHT22;35450;44.518;7.466;2022-08-01T18:17:10;30.40;60.90
49549;DHT22;35450;44.518;7.466;2022-08-01T18:20:15;30.30;61.00
49549;DHT22;35450;44.518;7.466;2022-08-01T18:23:18;30.20;61.90
49549;DHT22;35450;44.518;7.466;2022-08-01T18:26:23;30.00;61.40
49549;DHT22;35450;44.518;7.466;2022-08-01T18:29:27;29.80;61.70
49549;DHT22;35450;44.518;7.466;2022-08-01T18:32:31;29.70;62.00
49549;DHT22;35450;44.518;7.466;2022-08-01T18:35:35;29.50;61.90
49549;DHT22;35450;44.518;7.466;2022-08-01T18:38:39;29.40;62.10
49549;DHT22;35450;44.518;7.466;2022-08-01T18:41:43;29.50;62.10
49549;DHT22;35450;44.518;7.466;2022-08-01T18:44:47;29.40;62.00
49549;DHT22;35450;44.518;7.466;2022-08-01T18:47:51;29.40;61.90
49549;DHT22;35450;44.518;7.466;2022-08-01T18:50:56;29.30;62.30
49549;DHT22;35450;44.518;7.466;2022-08-01T18:54:03;29.30;62.40
49549;DHT22;35450;44.518;7.466;2022-08-01T18:57:07;29.20;62.70
49549;DHT22;35450;44.518;7.466;2022-08-01T19:00:11;29.10;62.40
49549;DHT22;35450;44.518;7.466;2022-08-01T19:03:17;29.10;62.20
49549;DHT22;35450;44.518;7.466;2022-08-01T19:06:23;29.00;62.30
49549;DHT22;35450;44.518;7.466;2022-08-01T19:09:27;28.90;62.50
49549;DHT22;35450;44.518;7.466;2022-08-01T19:12:51;28.80;62.50
49549;DHT22;35450;44.518;7.466;2022-08-01T19:15:55;28.60;62.70
49549;DHT22;35450;44.518;7.466;2022-08-01T19:19:04;28.50;63.10
49549;DHT22;35450;44.518;7.466;2022-08-01T19:22:08;28.50;63.20
49549;DHT22;35450;44.518;7.466;2022-08-01T19:25:15;28.50;63.40
49549;DHT22;35450;44.518;7.466;2022-08-01T19:28:22;28.60;63.40
49549;DHT22;35450;44.518;7.466;2022-08-01T19:31:27;28.60;63.50
49549;DHT22;35450;44.518;7.466;2022-08-01T19:34:34;28.60;63.50
49549;DHT22;35450;44.518;7.466;2022-08-01T19:37:39;28.60;63.40
49549;DHT22;35450;44.518;7.466;2022-08-01T19:40:48;28.60;63.40
49549;DHT22;35450;44.518;7.466;2022-08-01T19:43:53;28.50;63.30
49549;DHT22;35450;44.518;7.466;2022-08-01T19:46:59;28.50;63.30
49549;DHT22;35450;44.518;7.466;2022-08-01T19:50:04;28.50;63.30
49549;DHT22;35450;44.518;7.466;2022-08-01T19:53:10;28.50;63.20
49549;DHT22;35450;44.518;7.466;2022-08-01T19:56:16;28.50;63.00
49549;DHT22;35450;44.518;7.466;2022-08-01T19:59:22;28.50;62.90
49549;DHT22;35450;44.518;7.466;2022-08-01T20:02:26;28.50;63.10
49549;DHT22;35450;44.518;7.466;2022-08-01T20:05:33;28.40;63.30
49549;DHT22;35450;44.518;7.466;2022-08-01T20:08:37;28.40;63.50
49549;DHT22;35450;44.518;7.466;2022-08-01T20:11:48;28.40;63.70
49549;DHT22;35450;44.518;7.466;2022-08-01T20:14:52;28.40;63.80
49549;DHT22;35450;44.518;7.466;2022-08-01T20:17:57;28.40;63.60
49549;DHT22;35450;44.518;7.466;2022-08-01T20:21:02;28.40;63.60
49549;DHT22;35450;44.518;7.466;2022-08-01T20:24:09;28.40;63.50
49549;DHT22;35450;44.518;7.466;2022-08-01T20:27:16;28.40;63.40
49549;DHT22;35450;44.518;7.466;2022-08-01T20:30:23;28.40;63.60
49549;DHT22;35450;44.518;7.466;2022-08-01T20:33:27;28.40;63.70
49549;DHT22;35450;44.518;7.466;2022-08-01T20:36:33;28.40;64.20
49549;DHT22;35450;44.518;7.466;2022-08-01T20:39:40;28.40;65.10
49549;DHT22;35450;44.518;7.466;2022-08-01T20:42:47;28.40;65.20
49549;DHT22;35450;44.518;7.466;2022-08-01T20:45:51;28.40;64.80
49549;DHT22;35450;44.518;7.466;2022-08-01T20:48:56;28.40;64.20
49549;DHT22;35450;44.518;7.466;2022-08-01T20:52:01;28.40;63.90
49549;DHT22;35450;44.518;7.466;2022-08-01T20:55:05;28.40;63.90
49549;DHT22;35450;44.518;7.466;2022-08-01T20:58:11;28.40;64.10
49549;DHT22;35450;44.518;7.466;2022-08-01T21:01:25;28.30;65.00
49549;DHT22;35450;44.518;7.466;2022-08-01T21:07:56;28.30;65.60
49549;DHT22;35450;44.518;7.466;2022-08-01T21:11:02;28.10;66.60
49549;DHT22;35450;44.518;7.466;2022-08-01T21:14:09;28.00;66.60
49549;DHT22;35450;44.518;7.466;2022-08-01T21:17:45;28.00;66.10
49549;DHT22;35450;44.518;7.466;2022-08-01T21:20:58;28.00;65.70
49549;DHT22;35450;44.518;7.466;2022-08-01T21:24:12;27.90;65.50
49549;DHT22;35450;44.518;7.466;2022-08-01T21:27:20;27.80;65.10
49549;DHT22;35450;44.518;7.466;2022-08-01T21:30:26;27.80;65.40
49549;DHT22;35450;44.518;7.466;2022-08-01T21:33:32;27.70;65.60
49549;DHT22;35450;44.518;7.466;2022-08-01T21:36:37;27.70;65.60
49549;DHT22;35450;44.518;7.466;2022-08-01T21:39:44;27.70;65.90
49549;DHT22;35450;44.518;7.466;2022-08-01T21:42:50;27.70;65.80
49549;DHT22;35450;44.518;7.466;2022-08-01T21:45:55;27.70;65.40
49549;DHT22;35450;44.518;7.466;2022-08-01T21:49:00;27.80;65.10
49549;DHT22;35450;44.518;7.466;2022-08-01T21:52:10;27.70;65.00
49549;DHT22;35450;44.518;7.466;2022-08-01T21:55:24;27.80;64.90
49549;DHT22;35450;44.518;7.466;2022-08-01T21:58:33;27.80;65.40
49549;DHT22;35450;44.518;7.466;2022-08-01T22:01:46;27.80;65.70
49549;DHT22;35450;44.518;7.466;2022-08-01T22:05:03;27.80;66.00
49549;DHT22;35450;44.518;7.466;2022-08-01T22:08:09;27.80;66.30
49549;DHT22;35450;44.518;7.466;2022-08-01T22:11:18;27.80;65.90
49549;DHT22;35450;44.518;7.466;2022-08-01T22:14:24;27.80;65.40
49549;DHT22;35450;44.518;7.466;2022-08-01T22:17:30;27.80;65.70
49549;DHT22;35450;44.518;7.466;2022-08-01T22:20:35;27.80;66.20
49549;DHT22;35450;44.518;7.466;2022-08-01T22:23:39;27.80;66.40
49549;DHT22;35450;44.518;7.466;2022-08-01T22:26:45;27.70;66.60
49549;DHT22;35450;44.518;7.466;2022-08-01T22:30:02;27.50;66.80
49549;DHT22;35450;44.518;7.466;2022-08-01T22:33:11;27.50;67.00
49549;DHT22;35450;44.518;7.466;2022-08-01T22:36:15;27.40;67.80
49549;DHT22;35450;44.518;7.466;2022-08-01T22:39:19;27.40;67.50
49549;DHT22;35450;44.518;7.466;2022-08-01T22:42:31;27.50;67.30
49549;DHT22;35450;44.518;7.466;2022-08-01T22:46:07;27.50;66.80
49549;DHT22;35450;44.518;7.466;2022-08-01T22:49:41;27.60;66.40
49549;DHT22;35450;44.518;7.466;2022-08-01T22:56:17;27.50;67.50
49549;DHT22;35450;44.518;7.466;2022-08-01T22:59:28;27.50;67.80
49549;DHT22;35450;44.518;7.466;2022-08-01T23:02:47;27.50;68.00
49549;DHT22;35450;44.518;7.466;2022-08-01T23:09:11;27.50;67.30
49549;DHT22;35450;44.518;7.466;2022-08-01T23:12:17;27.50;67.00
49549;DHT22;35450;44.518;7.466;2022-08-01T23:15:22;27.50;66.50
49549;DHT22;35450;44.518;7.466;2022-08-01T23:18:27;27.50;67.10
49549;DHT22;35450;44.518;7.466;2022-08-01T23:21:32;27.40;67.00
49549;DHT22;35450;44.518;7.466;2022-08-01T23:24:38;27.30;67.30
49549;DHT22;35450;44.518;7.466;2022-08-01T23:27:47;27.30;67.50
49549;DHT22;35450;44.518;7.466;2022-08-01T23:30:51;27.20;67.50
49549;DHT22;35450;44.518;7.466;2022-08-01T23:33:55;27.20;66.60
49549;DHT22;35450;44.518;7.466;2022-08-01T23:36:59;27.20;67.10
49549;DHT22;35450;44.518;7.466;2022-08-01T23:40:03;27.20;67.00
49549;DHT22;35450;44.518;7.466;2022-08-01T23:43:08;27.10;66.60
49549;DHT22;35450;44.518;7.466;2022-08-01T23:46:12;27.10;66.80
49549;DHT22;35450;44.518;7.466;2022-08-01T23:49:16;27.10;67.20
49549;DHT22;35450;44.518;7.466;2022-08-01T23:52:20;27.10;67.60
49549;DHT22;35450;44.518;7.466;2022-08-01T23:55:24;27.00;67.70
49549;DHT22;35450;44.518;7.466;2022-08-01T23:58:28;26.90;68.10
